sensor_id;sensor_type;location;lat;lon;timestamp;P1;durP1;ratioP1;P2;durP2;ratioP2
7669;SDS011;3877;42.562;27.636;2023-08-17T00:00:08;16.77;;;7.55;;
7669;SDS011;3877;42.562;27.636;2023-08-17T00:02:39;24.05;;;8.23;;
7669;SDS011;3877;42.562;27.636;2023-08-17T00:05:06;23.90;;;7.55;;
7669;SDS011;3877;42.562;27.636;2023-08-17T00:07:35;16.27;;;7.40;;
7669;SDS011;3877;42.562;27.636;2023-08-17T00:10:03;15.73;;;7.22;;
7669;SDS011;3877;42.562;27.636;2023-08-17T00:12:32;16.67;;;6.97;;
7669;SDS011;3877;42.562;27.636;2023-08-17T00:14:59;11.40;;;6.50;;
7669;SDS011;3877;42.562;27.636;2023-08-17T00:17:27;16.17;;;6.60;;
7669;SDS011;3877;42.562;27.636;2023-08-17T00:19:55;19.85;;;6.53;;
7669;SDS011;3877;42.562;27.636;2023-08-17T00:22:22;22.45;;;7.68;;
7669;SDS011;3877;42.562;27.636;2023-08-17T00:24:49;17.83;;;7.53;;
7669;SDS011;3877;42.562;27.636;2023-08-17T00:27:17;20.33;;;7.25;;
7669;SDS011;3877;42.562;27.636;2023-08-17T00:29:45;18.05;;;7.15;;
7669;SDS011;3877;42.562;27.636;2023-08-17T00:32:12;16.77;;;7.22;;
7669;SDS011;3877;42.562;27.636;2023-08-17T00:34:40;16.52;;;7.15;;
7669;SDS011;3877;42.562;27.636;2023-08-17T00:37:07;15.70;;;6.65;;
7669;SDS011;3877;42.562;27.636;2023-08-17T00:39:34;15.80;;;6.28;;
7669;SDS011;3877;42.562;27.636;2023-08-17T00:42:01;15.80;;;7.70;;
7669;SDS011;3877;42.562;27.636;2023-08-17T00:44:29;18.38;;;7.72;;
7669;SDS011;3877;42.562;27.636;2023-08-17T00:46:58;20.17;;;7.65;;
7669;SDS011;3877;42.562;27.636;2023-08-17T00:49:25;19.63;;;7.43;;
7669;SDS011;3877;42.562;27.636;2023-08-17T00:51:53;19.90;;;7.72;;
7669;SDS011;3877;42.562;27.636;2023-08-17T00:54:24;16.77;;;7.57;;
7669;SDS011;3877;42.562;27.636;2023-08-17T00:56:53;15.77;;;6.80;;
7669;SDS011;3877;42.562;27.636;2023-08-17T00:59:21;10.35;;;6.53;;
7669;SDS011;3877;42.562;27.636;2023-08-17T01:01:49;17.67;;;7.10;;
7669;SDS011;3877;42.562;27.636;2023-08-17T01:04:18;17.70;;;7.28;;
7669;SDS011;3877;42.562;27.636;2023-08-17T01:06:45;17.70;;;7.45;;
7669;SDS011;3877;42.562;27.636;2023-08-17T01:09:13;19.77;;;6.40;;
7669;SDS011;3877;42.562;27.636;2023-08-17T01:11:41;19.15;;;7.47;;
7669;SDS011;3877;42.562;27.636;2023-08-17T01:14:17;17.58;;;7.15;;
7669;SDS011;3877;42.562;27.636;2023-08-17T01:16:52;18.95;;;6.85;;
7669;SDS011;3877;42.562;27.636;2023-08-17T01:19:25;14.38;;;6.70;;
7669;SDS011;3877;42.562;27.636;2023-08-17T01:21:54;14.13;;;6.40;;
7669;SDS011;3877;42.562;27.636;2023-08-17T01:24:28;18.48;;;6.80;;
7669;SDS011;3877;42.562;27.636;2023-08-17T01:26:55;13.30;;;6.93;;
7669;SDS011;3877;42.562;27.636;2023-08-17T01:29:22;12.25;;;6.55;;
7669;SDS011;3877;42.562;27.636;2023-08-17T01:31:51;14.13;;;6.68;;
7669;SDS011;3877;42.562;27.636;2023-08-17T01:34:24;14.68;;;6.53;;
7669;SDS011;3877;42.562;27.636;2023-08-17T01:36:53;16.17;;;7.05;;
7669;SDS011;3877;42.562;27.636;2023-08-17T01:39:23;14.25;;;6.75;;
7669;SDS011;3877;42.562;27.636;2023-08-17T01:42:01;18.80;;;7.47;;
7669;SDS011;3877;42.562;27.636;2023-08-17T01:44:28;11.25;;;6.40;;
7669;SDS011;3877;42.562;27.636;2023-08-17T01:46:56;11.15;;;5.75;;
7669;SDS011;3877;42.562;27.636;2023-08-17T01:49:23;11.20;;;5.95;;
7669;SDS011;3877;42.562;27.636;2023-08-17T01:51:50;16.80;;;7.25;;
7669;SDS011;3877;42.562;27.636;2023-08-17T01:54:18;13.10;;;6.55;;
7669;SDS011;3877;42.562;27.636;2023-08-17T01:56:47;13.65;;;6.18;;
7669;SDS011;3877;42.562;27.636;2023-08-17T01:59:14;19.00;;;6.63;;
7669;SDS011;3877;42.562;27.636;2023-08-17T02:01:41;16.40;;;6.03;;
7669;SDS011;3877;42.562;27.636;2023-08-17T02:04:09;15.20;;;6.78;;
7669;SDS011;3877;42.562;27.636;2023-08-17T02:06:36;16.25;;;6.32;;
7669;SDS011;3877;42.562;27.636;2023-08-17T02:09:04;11.40;;;6.40;;
7669;SDS011;3877;42.562;27.636;2023-08-17T02:11:31;12.70;;;6.50;;
7669;SDS011;3877;42.562;27.636;2023-08-17T02:14:00;11.63;;;5.32;;
7669;SDS011;3877;42.562;27.636;2023-08-17T02:16:27;16.30;;;6.28;;
7669;SDS011;3877;42.562;27.636;2023-08-17T02:18:54;22.88;;;6.55;;
7669;SDS011;3877;42.562;27.636;2023-08-17T02:21:22;14.45;;;6.03;;
7669;SDS011;3877;42.562;27.636;2023-08-17T02:23:49;11.32;;;6.15;;
7669;SDS011;3877;42.562;27.636;2023-08-17T02:26:16;14.15;;;6.35;;
7669;SDS011;3877;42.562;27.636;2023-08-17T02:28:43;11.98;;;5.97;;
7669;SDS011;3877;42.562;27.636;2023-08-17T02:31:12;11.25;;;5.80;;
7669;SDS011;3877;42.562;27.636;2023-08-17T02:33:39;13.52;;;5.90;;
7669;SDS011;3877;42.562;27.636;2023-08-17T02:36:07;16.15;;;5.55;;
7669;SDS011;3877;42.562;27.636;2023-08-17T02:38:34;14.93;;;6.25;;
7669;SDS011;3877;42.562;27.636;2023-08-17T02:41:01;18.50;;;6.45;;
7669;SDS011;3877;42.562;27.636;2023-08-17T02:43:28;15.82;;;5.80;;
7669;SDS011;3877;42.562;27.636;2023-08-17T02:45:55;12.05;;;5.53;;
7669;SDS011;3877;42.562;27.636;2023-08-17T02:48:26;14.57;;;5.95;;
7669;SDS011;3877;42.562;27.636;2023-08-17T02:50:53;9.10;;;5.43;;
7669;SDS011;3877;42.562;27.636;2023-08-17T02:53:20;13.95;;;5.35;;
7669;SDS011;3877;42.562;27.636;2023-08-17T02:55:48;13.80;;;5.47;;
7669;SDS011;3877;42.562;27.636;2023-08-17T02:58:15;21.05;;;5.50;;
7669;SDS011;3877;42.562;27.636;2023-08-17T03:00:42;16.25;;;6.32;;
7669;SDS011;3877;42.562;27.636;2023-08-17T03:03:09;13.13;;;5.60;;
7669;SDS011;3877;42.562;27.636;2023-08-17T03:05:38;11.98;;;5.47;;
7669;SDS011;3877;42.562;27.636;2023-08-17T03:08:05;14.45;;;5.65;;
7669;SDS011;3877;42.562;27.636;2023-08-17T03:10:33;13.02;;;5.75;;
7669;SDS011;3877;42.562;27.636;2023-08-17T03:13:00;14.35;;;5.80;;
7669;SDS011;3877;42.562;27.636;2023-08-17T03:15:28;13.25;;;6.10;;
7669;SDS011;3877;42.562;27.636;2023-08-17T03:17:55;13.77;;;6.15;;
7669;SDS011;3877;42.562;27.636;2023-08-17T03:20:22;10.23;;;5.53;;
7669;SDS011;3877;42.562;27.636;2023-08-17T03:22:51;12.70;;;5.25;;
7669;SDS011;3877;42.562;27.636;2023-08-17T03:25:19;13.32;;;5.70;;
7669;SDS011;3877;42.562;27.636;2023-08-17T03:27:46;15.57;;;5.43;;
7669;SDS011;3877;42.562;27.636;2023-08-17T03:30:13;15.10;;;5.80;;
7669;SDS011;3877;42.562;27.636;2023-08-17T03:32:40;18.63;;;5.28;;
7669;SDS011;3877;42.562;27.636;2023-08-17T03:35:08;16.95;;;5.82;;
7669;SDS011;3877;42.562;27.636;2023-08-17T03:37:35;9.20;;;5.10;;
7669;SDS011;3877;42.562;27.636;2023-08-17T03:40:04;14.50;;;5.22;;
7669;SDS011;3877;42.562;27.636;2023-08-17T03:42:33;9.30;;;5.03;;
7669;SDS011;3877;42.562;27.636;2023-08-17T03:45:00;12.50;;;5.38;;
7669;SDS011;3877;42.562;27.636;2023-08-17T03:47:27;11.32;;;5.45;;
7669;SDS011;3877;42.562;27.636;2023-08-17T03:49:54;13.55;;;5.25;;
7669;SDS011;3877;42.562;27.636;2023-08-17T03:52:21;17.05;;;6.00;;
7669;SDS011;3877;42.562;27.636;2023-08-17T03:54:49;18.48;;;5.45;;
7669;SDS011;3877;42.562;27.636;2023-08-17T03:57:17;15.30;;;5.45;;
7669;SDS011;3877;42.562;27.636;2023-08-17T03:59:44;10.88;;;5.05;;
7669;SDS011;3877;42.562;27.636;2023-08-17T04:02:12;16.33;;;5.53;;
7669;SDS011;3877;42.562;27.636;2023-08-17T04:04:39;18.52;;;5.60;;
7669;SDS011;3877;42.562;27.636;2023-08-17T04:07:06;11.27;;;5.78;;
7669;SDS011;3877;42.562;27.636;2023-08-17T04:09:33;16.40;;;5.88;;
7669;SDS011;3877;42.562;27.636;2023-08-17T04:12:01;11.15;;;5.40;;
7669;SDS011;3877;42.562;27.636;2023-08-17T04:14:31;15.80;;;6.10;;
7669;SDS011;3877;42.562;27.636;2023-08-17T04:16:58;15.05;;;5.53;;
7669;SDS011;3877;42.562;27.636;2023-08-17T04:19:27;14.38;;;5.55;;
7669;SDS011;3877;42.562;27.636;2023-08-17T04:21:54;14.75;;;6.20;;
7669;SDS011;3877;42.562;27.636;2023-08-17T04:24:22;14.40;;;5.38;;
7669;SDS011;3877;42.562;27.636;2023-08-17T04:26:49;12.77;;;5.50;;
7669;SDS011;3877;42.562;27.636;2023-08-17T04:29:16;16.55;;;5.68;;
7669;SDS011;3877;42.562;27.636;2023-08-17T04:31:45;15.60;;;5.53;;
7669;SDS011;3877;42.562;27.636;2023-08-17T04:34:12;16.15;;;5.65;;
7669;SDS011;3877;42.562;27.636;2023-08-17T04:36:39;19.85;;;5.60;;
7669;SDS011;3877;42.562;27.636;2023-08-17T04:39:07;9.75;;;5.45;;
7669;SDS011;3877;42.562;27.636;2023-08-17T04:41:34;8.13;;;5.20;;
7669;SDS011;3877;42.562;27.636;2023-08-17T04:44:01;13.73;;;5.20;;
7669;SDS011;3877;42.562;27.636;2023-08-17T04:46:29;13.82;;;5.25;;
7669;SDS011;3877;42.562;27.636;2023-08-17T04:48:57;14.38;;;5.72;;
7669;SDS011;3877;42.562;27.636;2023-08-17T04:51:24;13.50;;;5.60;;
7669;SDS011;3877;42.562;27.636;2023-08-17T04:53:52;15.93;;;5.60;;
7669;SDS011;3877;42.562;27.636;2023-08-17T04:56:19;13.07;;;4.90;;
7669;SDS011;3877;42.562;27.636;2023-08-17T04:58:46;16.30;;;5.80;;
7669;SDS011;3877;42.562;27.636;2023-08-17T05:01:14;14.60;;;5.70;;
7669;SDS011;3877;42.562;27.636;2023-08-17T05:03:41;13.82;;;5.43;;
7669;SDS011;3877;42.562;27.636;2023-08-17T05:06:09;11.75;;;5.65;;
7669;SDS011;3877;42.562;27.636;2023-08-17T05:08:37;13.32;;;5.68;;
7669;SDS011;3877;42.562;27.636;2023-08-17T05:11:04;13.65;;;5.30;;
7669;SDS011;3877;42.562;27.636;2023-08-17T05:13:31;13.38;;;5.40;;
7669;SDS011;3877;42.562;27.636;2023-08-17T05:15:59;11.98;;;4.95;;
7669;SDS011;3877;42.562;27.636;2023-08-17T05:18:26;9.90;;;4.75;;
7669;SDS011;3877;42.562;27.636;2023-08-17T05:20:53;8.57;;;4.78;;
7669;SDS011;3877;42.562;27.636;2023-08-17T05:23:22;11.75;;;5.32;;
7669;SDS011;3877;42.562;27.636;2023-08-17T05:25:49;12.30;;;4.55;;
7669;SDS011;3877;42.562;27.636;2023-08-17T05:28:16;12.38;;;5.25;;
7669;SDS011;3877;42.562;27.636;2023-08-17T05:30:43;9.70;;;4.78;;
7669;SDS011;3877;42.562;27.636;2023-08-17T05:33:11;13.52;;;5.25;;
7669;SDS011;3877;42.562;27.636;2023-08-17T05:35:38;10.95;;;5.03;;
7669;SDS011;3877;42.562;27.636;2023-08-17T05:38:05;8.55;;;5.00;;
7669;SDS011;3877;42.562;27.636;2023-08-17T05:40:34;10.55;;;4.78;;
7669;SDS011;3877;42.562;27.636;2023-08-17T05:43:01;10.98;;;5.20;;
7669;SDS011;3877;42.562;27.636;2023-08-17T05:45:29;10.27;;;4.72;;
7669;SDS011;3877;42.562;27.636;2023-08-17T05:47:56;13.70;;;4.80;;
7669;SDS011;3877;42.562;27.636;2023-08-17T05:50:23;14.25;;;4.85;;
7669;SDS011;3877;42.562;27.636;2023-08-17T05:52:51;13.82;;;4.97;;
7669;SDS011;3877;42.562;27.636;2023-08-17T05:55:19;19.25;;;5.55;;
7669;SDS011;3877;42.562;27.636;2023-08-17T05:57:47;11.43;;;5.10;;
7669;SDS011;3877;42.562;27.636;2023-08-17T06:00:15;10.48;;;5.15;;
7669;SDS011;3877;42.562;27.636;2023-08-17T06:02:42;10.48;;;4.90;;
7669;SDS011;3877;42.562;27.636;2023-08-17T06:05:15;14.00;;;5.57;;
7669;SDS011;3877;42.562;27.636;2023-08-17T06:07:42;10.95;;;4.70;;
7669;SDS011;3877;42.562;27.636;2023-08-17T06:10:10;11.90;;;4.68;;
7669;SDS011;3877;42.562;27.636;2023-08-17T06:12:37;16.98;;;5.50;;
7669;SDS011;3877;42.562;27.636;2023-08-17T06:15:07;10.60;;;5.07;;
7669;SDS011;3877;42.562;27.636;2023-08-17T06:17:35;15.63;;;5.78;;
7669;SDS011;3877;42.562;27.636;2023-08-17T06:20:02;13.43;;;5.38;;
7669;SDS011;3877;42.562;27.636;2023-08-17T06:22:30;12.38;;;5.40;;
7669;SDS011;3877;42.562;27.636;2023-08-17T06:24:57;13.20;;;5.47;;
7669;SDS011;3877;42.562;27.636;2023-08-17T06:27:24;17.17;;;6.28;;
7669;SDS011;3877;42.562;27.636;2023-08-17T06:29:52;11.80;;;5.25;;
7669;SDS011;3877;42.562;27.636;2023-08-17T06:32:20;10.10;;;5.45;;
7669;SDS011;3877;42.562;27.636;2023-08-17T06:34:48;8.50;;;5.18;;
7669;SDS011;3877;42.562;27.636;2023-08-17T06:37:15;11.50;;;5.20;;
7669;SDS011;3877;42.562;27.636;2023-08-17T06:39:42;14.32;;;5.55;;
7669;SDS011;3877;42.562;27.636;2023-08-17T06:42:09;10.55;;;5.15;;
7669;SDS011;3877;42.562;27.636;2023-08-17T06:44:37;13.98;;;5.55;;
7669;SDS011;3877;42.562;27.636;2023-08-17T06:47:04;13.93;;;5.38;;
7669;SDS011;3877;42.562;27.636;2023-08-17T06:49:35;17.58;;;5.90;;
7669;SDS011;3877;42.562;27.636;2023-08-17T06:52:02;13.07;;;6.05;;
7669;SDS011;3877;42.562;27.636;2023-08-17T06:54:30;16.38;;;5.68;;
7669;SDS011;3877;42.562;27.636;2023-08-17T06:56:57;12.43;;;5.57;;
7669;SDS011;3877;42.562;27.636;2023-08-17T06:59:25;14.63;;;6.20;;
7669;SDS011;3877;42.562;27.636;2023-08-17T07:01:52;11.70;;;5.32;;
7669;SDS011;3877;42.562;27.636;2023-08-17T07:04:19;15.77;;;5.85;;
7669;SDS011;3877;42.562;27.636;2023-08-17T07:06:48;18.40;;;6.43;;
7669;SDS011;3877;42.562;27.636;2023-08-17T07:09:16;21.02;;;6.25;;
7669;SDS011;3877;42.562;27.636;2023-08-17T07:11:43;15.63;;;5.45;;
7669;SDS011;3877;42.562;27.636;2023-08-17T07:14:11;15.20;;;5.65;;
7669;SDS011;3877;42.562;27.636;2023-08-17T07:16:38;10.43;;;5.32;;
7669;SDS011;3877;42.562;27.636;2023-08-17T07:19:05;11.52;;;5.05;;
7669;SDS011;3877;42.562;27.636;2023-08-17T07:21:33;9.80;;;5.10;;
7669;SDS011;3877;42.562;27.636;2023-08-17T07:24:08;14.05;;;6.00;;
7669;SDS011;3877;42.562;27.636;2023-08-17T07:26:38;14.45;;;5.70;;
7669;SDS011;3877;42.562;27.636;2023-08-17T07:29:06;15.45;;;5.78;;
7669;SDS011;3877;42.562;27.636;2023-08-17T07:31:33;16.48;;;5.53;;
7669;SDS011;3877;42.562;27.636;2023-08-17T07:34:02;14.15;;;5.53;;
7669;SDS011;3877;42.562;27.636;2023-08-17T07:36:30;10.75;;;4.95;;
7669;SDS011;3877;42.562;27.636;2023-08-17T07:38:58;11.88;;;5.65;;
7669;SDS011;3877;42.562;27.636;2023-08-17T07:41:27;12.60;;;5.65;;
7669;SDS011;3877;42.562;27.636;2023-08-17T07:43:54;11.38;;;5.57;;
7669;SDS011;3877;42.562;27.636;2023-08-17T07:46:21;16.02;;;5.65;;
7669;SDS011;3877;42.562;27.636;2023-08-17T07:48:49;13.38;;;5.50;;
7669;SDS011;3877;42.562;27.636;2023-08-17T07:51:16;12.50;;;5.07;;
7669;SDS011;3877;42.562;27.636;2023-08-17T07:53:43;19.48;;;6.85;;
7669;SDS011;3877;42.562;27.636;2023-08-17T07:56:10;14.57;;;5.55;;
7669;SDS011;3877;42.562;27.636;2023-08-17T07:58:39;10.93;;;4.78;;
7669;SDS011;3877;42.562;27.636;2023-08-17T08:01:06;19.88;;;5.30;;
7669;SDS011;3877;42.562;27.636;2023-08-17T08:03:33;14.57;;;4.97;;
7669;SDS011;3877;42.562;27.636;2023-08-17T08:06:01;15.85;;;5.93;;
7669;SDS011;3877;42.562;27.636;2023-08-17T08:08:28;15.30;;;5.80;;
7669;SDS011;3877;42.562;27.636;2023-08-17T08:10:55;13.48;;;5.63;;
7669;SDS011;3877;42.562;27.636;2023-08-17T08:13:23;9.93;;;5.00;;
7669;SDS011;3877;42.562;27.636;2023-08-17T08:15:51;14.23;;;6.00;;
7669;SDS011;3877;42.562;27.636;2023-08-17T08:18:19;17.83;;;6.25;;
7669;SDS011;3877;42.562;27.636;2023-08-17T08:20:47;15.15;;;5.88;;
7669;SDS011;3877;42.562;27.636;2023-08-17T08:23:15;11.73;;;5.40;;
7669;SDS011;3877;42.562;27.636;2023-08-17T08:25:42;13.55;;;5.28;;
7669;SDS011;3877;42.562;27.636;2023-08-17T08:28:09;19.13;;;5.95;;
7669;SDS011;3877;42.562;27.636;2023-08-17T08:30:36;12.57;;;5.78;;
7669;SDS011;3877;42.562;27.636;2023-08-17T08:33:05;9.57;;;5.05;;
7669;SDS011;3877;42.562;27.636;2023-08-17T08:35:32;13.48;;;5.88;;
7669;SDS011;3877;42.562;27.636;2023-08-17T08:37:59;14.05;;;6.00;;
7669;SDS011;3877;42.562;27.636;2023-08-17T08:40:27;14.77;;;5.57;;
7669;SDS011;3877;42.562;27.636;2023-08-17T08:42:56;11.85;;;5.65;;
7669;SDS011;3877;42.562;27.636;2023-08-17T08:45:24;19.05;;;5.72;;
7669;SDS011;3877;42.562;27.636;2023-08-17T08:47:54;12.55;;;5.70;;
7669;SDS011;3877;42.562;27.636;2023-08-17T08:50:25;16.30;;;5.20;;
7669;SDS011;3877;42.562;27.636;2023-08-17T08:52:57;12.35;;;5.90;;
7669;SDS011;3877;42.562;27.636;2023-08-17T08:55:27;13.43;;;6.20;;
7669;SDS011;3877;42.562;27.636;2023-08-17T08:57:56;11.68;;;5.45;;
7669;SDS011;3877;42.562;27.636;2023-08-17T09:00:24;16.77;;;5.68;;
7669;SDS011;3877;42.562;27.636;2023-08-17T09:02:52;14.77;;;6.07;;
7669;SDS011;3877;42.562;27.636;2023-08-17T09:05:21;15.40;;;6.07;;
7669;SDS011;3877;42.562;27.636;2023-08-17T09:07:50;16.10;;;6.20;;
7669;SDS011;3877;42.562;27.636;2023-08-17T09:10:18;8.82;;;5.78;;
7669;SDS011;3877;42.562;27.636;2023-08-17T09:12:46;11.13;;;5.78;;
7669;SDS011;3877;42.562;27.636;2023-08-17T09:15:13;14.95;;;6.78;;
7669;SDS011;3877;42.562;27.636;2023-08-17T09:17:41;16.80;;;7.03;;
7669;SDS011;3877;42.562;27.636;2023-08-17T09:20:09;17.17;;;6.15;;
7669;SDS011;3877;42.562;27.636;2023-08-17T09:22:38;13.38;;;5.80;;
7669;SDS011;3877;42.562;27.636;2023-08-17T09:25:08;17.80;;;6.63;;
7669;SDS011;3877;42.562;27.636;2023-08-17T09:27:36;20.77;;;6.40;;
7669;SDS011;3877;42.562;27.636;2023-08-17T09:30:04;16.52;;;5.95;;
7669;SDS011;3877;42.562;27.636;2023-08-17T09:32:32;15.05;;;6.22;;
7669;SDS011;3877;42.562;27.636;2023-08-17T09:35:03;15.45;;;6.25;;
7669;SDS011;3877;42.562;27.636;2023-08-17T09:37:31;13.90;;;6.05;;
7669;SDS011;3877;42.562;27.636;2023-08-17T09:39:59;15.18;;;6.60;;
7669;SDS011;3877;42.562;27.636;2023-08-17T09:42:28;20.20;;;6.85;;
7669;SDS011;3877;42.562;27.636;2023-08-17T09:44:57;19.15;;;6.63;;
7669;SDS011;3877;42.562;27.636;2023-08-17T09:47:26;16.50;;;6.68;;
7669;SDS011;3877;42.562;27.636;2023-08-17T09:49:54;14.25;;;6.20;;
7669;SDS011;3877;42.562;27.636;2023-08-17T09:52:21;16.38;;;6.53;;
7669;SDS011;3877;42.562;27.636;2023-08-17T09:54:50;10.95;;;6.10;;
7669;SDS011;3877;42.562;27.636;2023-08-17T09:57:19;14.65;;;6.05;;
7669;SDS011;3877;42.562;27.636;2023-08-17T09:59:48;15.90;;;6.43;;
7669;SDS011;3877;42.562;27.636;2023-08-17T10:02:17;13.57;;;6.10;;
7669;SDS011;3877;42.562;27.636;2023-08-17T10:04:48;15.38;;;6.30;;
7669;SDS011;3877;42.562;27.636;2023-08-17T10:07:17;13.32;;;6.15;;
7669;SDS011;3877;42.562;27.636;2023-08-17T10:09:48;13.52;;;6.28;;
7669;SDS011;3877;42.562;27.636;2023-08-17T10:12:20;15.70;;;6.32;;
7669;SDS011;3877;42.562;27.636;2023-08-17T10:14:58;16.35;;;6.35;;
7669;SDS011;3877;42.562;27.636;2023-08-17T10:17:37;15.60;;;6.97;;
7669;SDS011;3877;42.562;27.636;2023-08-17T10:20:10;16.08;;;6.60;;
7669;SDS011;3877;42.562;27.636;2023-08-17T10:22:39;15.43;;;7.05;;
7669;SDS011;3877;42.562;27.636;2023-08-17T10:25:11;18.65;;;6.70;;
7669;SDS011;3877;42.562;27.636;2023-08-17T10:27:39;19.40;;;7.38;;
7669;SDS011;3877;42.562;27.636;2023-08-17T10:30:09;14.82;;;6.88;;
7669;SDS011;3877;42.562;27.636;2023-08-17T10:32:37;14.48;;;6.88;;
7669;SDS011;3877;42.562;27.636;2023-08-17T10:35:06;17.00;;;6.60;;
7669;SDS011;3877;42.562;27.636;2023-08-17T10:37:34;13.57;;;7.03;;
7669;SDS011;3877;42.562;27.636;2023-08-17T10:40:02;16.20;;;6.57;;
7669;SDS011;3877;42.562;27.636;2023-08-17T10:42:30;18.58;;;7.05;;
7669;SDS011;3877;42.562;27.636;2023-08-17T10:44:58;21.02;;;7.07;;
7669;SDS011;3877;42.562;27.636;2023-08-17T10:47:28;16.45;;;6.90;;
7669;SDS011;3877;42.562;27.636;2023-08-17T10:49:57;14.70;;;6.10;;
7669;SDS011;3877;42.562;27.636;2023-08-17T10:52:25;19.45;;;6.55;;
7669;SDS011;3877;42.562;27.636;2023-08-17T10:54:55;12.25;;;7.00;;
7669;SDS011;3877;42.562;27.636;2023-08-17T10:57:27;14.98;;;6.53;;
7669;SDS011;3877;42.562;27.636;2023-08-17T11:02:49;20.40;;;6.95;;
7669;SDS011;3877;42.562;27.636;2023-08-17T11:08:07;14.45;;;6.30;;
7669;SDS011;3877;42.562;27.636;2023-08-17T11:10:35;16.67;;;6.75;;
7669;SDS011;3877;42.562;27.636;2023-08-17T11:13:03;17.85;;;6.72;;
7669;SDS011;3877;42.562;27.636;2023-08-17T11:15:36;16.08;;;6.95;;
7669;SDS011;3877;42.562;27.636;2023-08-17T11:18:06;18.73;;;8.07;;
7669;SDS011;3877;42.562;27.636;2023-08-17T11:20:33;16.77;;;6.78;;
7669;SDS011;3877;42.562;27.636;2023-08-17T11:23:01;14.65;;;6.65;;
7669;SDS011;3877;42.562;27.636;2023-08-17T11:25:30;22.40;;;7.57;;
7669;SDS011;3877;42.562;27.636;2023-08-17T11:27:59;18.17;;;7.65;;
7669;SDS011;3877;42.562;27.636;2023-08-17T11:30:27;16.40;;;6.40;;
7669;SDS011;3877;42.562;27.636;2023-08-17T11:32:56;17.70;;;6.72;;
7669;SDS011;3877;42.562;27.636;2023-08-17T11:35:25;16.30;;;7.20;;
7669;SDS011;3877;42.562;27.636;2023-08-17T11:37:52;17.63;;;7.10;;
7669;SDS011;3877;42.562;27.636;2023-08-17T11:40:20;19.33;;;6.97;;
7669;SDS011;3877;42.562;27.636;2023-08-17T11:42:47;15.77;;;7.18;;
7669;SDS011;3877;42.562;27.636;2023-08-17T11:45:15;19.85;;;7.30;;
7669;SDS011;3877;42.562;27.636;2023-08-17T11:47:42;21.38;;;7.03;;
7669;SDS011;3877;42.562;27.636;2023-08-17T11:50:11;17.95;;;6.80;;
7669;SDS011;3877;42.562;27.636;2023-08-17T11:52:41;21.42;;;7.00;;
7669;SDS011;3877;42.562;27.636;2023-08-17T11:55:08;22.98;;;7.88;;
7669;SDS011;3877;42.562;27.636;2023-08-17T11:57:36;20.77;;;7.35;;
7669;SDS011;3877;42.562;27.636;2023-08-17T12:00:05;20.52;;;7.57;;
7669;SDS011;3877;42.562;27.636;2023-08-17T12:02:35;18.38;;;7.43;;
7669;SDS011;3877;42.562;27.636;2023-08-17T12:05:07;22.67;;;8.02;;
7669;SDS011;3877;42.562;27.636;2023-08-17T12:07:35;18.27;;;7.28;;
7669;SDS011;3877;42.562;27.636;2023-08-17T12:10:04;20.17;;;7.45;;
7669;SDS011;3877;42.562;27.636;2023-08-17T12:12:36;15.73;;;6.93;;
7669;SDS011;3877;42.562;27.636;2023-08-17T12:15:03;17.27;;;7.47;;
7669;SDS011;3877;42.562;27.636;2023-08-17T12:17:31;23.38;;;7.40;;
7669;SDS011;3877;42.562;27.636;2023-08-17T12:19:59;14.60;;;7.13;;
7669;SDS011;3877;42.562;27.636;2023-08-17T12:22:26;21.17;;;7.85;;
7669;SDS011;3877;42.562;27.636;2023-08-17T12:24:53;25.23;;;8.38;;
7669;SDS011;3877;42.562;27.636;2023-08-17T12:27:23;15.48;;;7.18;;
7669;SDS011;3877;42.562;27.636;2023-08-17T12:29:51;18.35;;;7.82;;
7669;SDS011;3877;42.562;27.636;2023-08-17T12:32:19;20.65;;;7.57;;
7669;SDS011;3877;42.562;27.636;2023-08-17T12:34:46;17.50;;;7.85;;
7669;SDS011;3877;42.562;27.636;2023-08-17T12:37:18;21.25;;;7.93;;
7669;SDS011;3877;42.562;27.636;2023-08-17T12:39:46;16.42;;;8.75;;
7669;SDS011;3877;42.562;27.636;2023-08-17T12:42:13;20.38;;;8.68;;
7669;SDS011;3877;42.562;27.636;2023-08-17T12:44:43;18.42;;;7.90;;
7669;SDS011;3877;42.562;27.636;2023-08-17T12:47:11;19.92;;;8.43;;
7669;SDS011;3877;42.562;27.636;2023-08-17T12:49:38;18.20;;;8.68;;
7669;SDS011;3877;42.562;27.636;2023-08-17T12:52:05;13.82;;;8.00;;
7669;SDS011;3877;42.562;27.636;2023-08-17T12:54:32;21.75;;;8.32;;
7669;SDS011;3877;42.562;27.636;2023-08-17T12:57:00;18.83;;;8.35;;
7669;SDS011;3877;42.562;27.636;2023-08-17T12:59:28;16.98;;;8.02;;
7669;SDS011;3877;42.562;27.636;2023-08-17T13:01:57;16.77;;;7.95;;
7669;SDS011;3877;42.562;27.636;2023-08-17T13:04:24;18.55;;;8.20;;
7669;SDS011;3877;42.562;27.636;2023-08-17T13:06:51;18.40;;;8.13;;
7669;SDS011;3877;42.562;27.636;2023-08-17T13:09:19;20.63;;;8.23;;
7669;SDS011;3877;42.562;27.636;2023-08-17T13:11:46;20.73;;;8.57;;
7669;SDS011;3877;42.562;27.636;2023-08-17T13:14:14;18.73;;;8.85;;
7669;SDS011;3877;42.562;27.636;2023-08-17T13:16:41;21.85;;;8.70;;
7669;SDS011;3877;42.562;27.636;2023-08-17T13:19:10;18.80;;;8.80;;
7669;SDS011;3877;42.562;27.636;2023-08-17T13:21:37;13.50;;;8.25;;
7669;SDS011;3877;42.562;27.636;2023-08-17T13:24:05;16.75;;;8.68;;
7669;SDS011;3877;42.562;27.636;2023-08-17T13:26:32;20.17;;;8.90;;
7669;SDS011;3877;42.562;27.636;2023-08-17T13:28:59;27.35;;;9.02;;
7669;SDS011;3877;42.562;27.636;2023-08-17T13:31:26;18.45;;;8.90;;
7669;SDS011;3877;42.562;27.636;2023-08-17T13:33:54;26.52;;;8.73;;
7669;SDS011;3877;42.562;27.636;2023-08-17T13:36:22;17.20;;;9.18;;
7669;SDS011;3877;42.562;27.636;2023-08-17T13:38:50;13.73;;;8.38;;
7669;SDS011;3877;42.562;27.636;2023-08-17T13:41:17;18.27;;;8.82;;
7669;SDS011;3877;42.562;27.636;2023-08-17T13:43:44;22.90;;;9.05;;
7669;SDS011;3877;42.562;27.636;2023-08-17T13:46:12;17.65;;;8.27;;
7669;SDS011;3877;42.562;27.636;2023-08-17T13:48:39;22.15;;;8.82;;
7669;SDS011;3877;42.562;27.636;2023-08-17T13:51:06;20.67;;;8.63;;
7669;SDS011;3877;42.562;27.636;2023-08-17T13:53:35;19.27;;;9.07;;
7669;SDS011;3877;42.562;27.636;2023-08-17T13:56:03;17.77;;;8.43;;
7669;SDS011;3877;42.562;27.636;2023-08-17T13:58:30;17.55;;;8.40;;
7669;SDS011;3877;42.562;27.636;2023-08-17T14:00:57;18.73;;;8.52;;
7669;SDS011;3877;42.562;27.636;2023-08-17T14:03:25;17.05;;;8.77;;
7669;SDS011;3877;42.562;27.636;2023-08-17T14:05:52;16.17;;;8.27;;
7669;SDS011;3877;42.562;27.636;2023-08-17T14:08:20;20.83;;;8.68;;
7669;SDS011;3877;42.562;27.636;2023-08-17T14:10:49;22.10;;;8.02;;
7669;SDS011;3877;42.562;27.636;2023-08-17T14:13:16;18.17;;;8.75;;
7669;SDS011;3877;42.562;27.636;2023-08-17T14:15:44;18.50;;;9.05;;
7669;SDS011;3877;42.562;27.636;2023-08-17T14:18:11;14.85;;;8.13;;
7669;SDS011;3877;42.562;27.636;2023-08-17T14:20:38;13.15;;;8.50;;
7669;SDS011;3877;42.562;27.636;2023-08-17T14:23:06;14.55;;;7.78;;
7669;SDS011;3877;42.562;27.636;2023-08-17T14:25:33;18.25;;;8.90;;
7669;SDS011;3877;42.562;27.636;2023-08-17T14:28:05;13.45;;;8.20;;
7669;SDS011;3877;42.562;27.636;2023-08-17T14:30:33;22.52;;;8.63;;
7669;SDS011;3877;42.562;27.636;2023-08-17T14:33:00;19.48;;;8.77;;
7669;SDS011;3877;42.562;27.636;2023-08-17T14:35:28;14.15;;;8.20;;
7669;SDS011;3877;42.562;27.636;2023-08-17T14:37:55;14.75;;;8.65;;
7669;SDS011;3877;42.562;27.636;2023-08-17T14:40:23;18.67;;;8.32;;
7669;SDS011;3877;42.562;27.636;2023-08-17T14:42:50;21.45;;;8.35;;
7669;SDS011;3877;42.562;27.636;2023-08-17T14:45:19;13.82;;;7.85;;
7669;SDS011;3877;42.562;27.636;2023-08-17T14:47:46;19.23;;;8.00;;
7669;SDS011;3877;42.562;27.636;2023-08-17T14:50:13;18.75;;;8.38;;
7669;SDS011;3877;42.562;27.636;2023-08-17T14:52:41;24.80;;;8.25;;
7669;SDS011;3877;42.562;27.636;2023-08-17T14:55:08;15.07;;;7.55;;
7669;SDS011;3877;42.562;27.636;2023-08-17T14:57:36;17.67;;;7.85;;